Terminal Aerodrome Forecast
Issued by NWS Newport/Morehead City, NC

Home | Current Version | Previous Version | Graphics & Text | Print | Product List | Glossary On
Versions: 1 2 3 4 5 6 7 8 9 10 11 12 13 14
517
FTUS42 KMHX 190555
TAFEWN
TAF
KEWN 190555Z 1906/2006 21013G23KT P6SM SCT040
     FM190900 24014G26KT P6SM VCSH SCT020 BKN035
      TEMPO 1912/1914 5SM -RA BKN020
     FM191400 30014G25KT P6SM BKN090
     FM192100 31009KT P6SM SKC=

USA.gov is the U.S. government's official web portal to all federal, state and local government web resources and services.